RYR395K EGPH-EIKN
Flight info
| Callsign | RYR395K |
|---|---|
| Flight time | 0h 53m |
| Altitude | 22000 |
| Route | GOSAM P600 TRN DCT MAGEE DCT BELZU DCT ERNAN DCT CON |
| Aircraft | B738/M-SDE2E3FGHIRWXY/LB1 |
Departure
| Time | 2026-04-25 10:59 |
|---|---|
| Airport | Edinburgh Airport (EGPH) |
Arrival
| Time | 2026-04-25 11:52 |
|---|---|
| Airport | Ireland West Airport Knock (EIKN) |
| Time | Latitude | Longitude | Altitude | Speed | Heading |
|---|---|---|---|---|---|
| 2026-04-25 10:38 | 55.94573 | -3.36627 | 105 ft | 0 kts | 90° |
| 2026-04-25 10:49 | 55.94573 | -3.36652 | 105 ft | 2 kts | 90° |
| 2026-04-25 10:49 | 55.94573 | -3.36682 | 105 ft | 2 kts | 90° |
| 2026-04-25 10:49 | 55.94573 | -3.36700 | 105 ft | 0 kts | 90° |
| 2026-04-25 10:53 | 55.94576 | -3.36696 | 105 ft | 1 kts | 51° |
| 2026-04-25 10:53 | 55.94588 | -3.36700 | 104 ft | 4 kts | 347° |
| 2026-04-25 10:53 | 55.94643 | -3.36724 | 104 ft | 11 kts | 347° |
| 2026-04-25 10:54 | 55.94738 | -3.36736 | 106 ft | 14 kts | 355° |
| 2026-04-25 10:54 | 55.94792 | -3.36770 | 107 ft | 12 kts | 346° |
| 2026-04-25 10:54 | 55.94898 | -3.36804 | 107 ft | 12 kts | 330° |
| 2026-04-25 10:54 | 55.94916 | -3.36928 | 108 ft | 11 kts | 243° |
| 2026-04-25 10:55 | 55.94873 | -3.37047 | 108 ft | 11 kts | 239° |
| 2026-04-25 10:55 | 55.94834 | -3.37164 | 108 ft | 11 kts | 240° |
| 2026-04-25 10:55 | 55.94793 | -3.37286 | 109 ft | 12 kts | 239° |
| 2026-04-25 10:55 | 55.94752 | -3.37410 | 113 ft | 12 kts | 239° |
| 2026-04-25 10:56 | 55.94704 | -3.37561 | 112 ft | 15 kts | 240° |
| 2026-04-25 10:56 | 55.94649 | -3.37734 | 115 ft | 17 kts | 237° |
| 2026-04-25 10:56 | 55.94577 | -3.37936 | 114 ft | 21 kts | 237° |
| 2026-04-25 10:56 | 55.94490 | -3.38175 | 112 ft | 25 kts | 237° |
| 2026-04-25 10:57 | 55.94414 | -3.38403 | 113 ft | 19 kts | 238° |
| 2026-04-25 10:57 | 55.94343 | -3.38608 | 119 ft | 19 kts | 239° |
| 2026-04-25 10:57 | 55.94286 | -3.38785 | 120 ft | 11 kts | 246° |
| 2026-04-25 10:57 | 55.94320 | -3.38902 | 120 ft | 13 kts | 328° |
| 2026-04-25 10:58 | 55.94411 | -3.38961 | 120 ft | 15 kts | 20° |
| 2026-04-25 10:58 | 55.94480 | -3.38781 | 116 ft | 34 kts | 60° |
| 2026-04-25 10:58 | 55.94737 | -3.38019 | 116 ft | 105 kts | 58° |
| 2026-04-25 10:58 | 55.95217 | -3.36606 | 212 ft | 152 kts | 59° |
| 2026-04-25 10:59 | 55.95771 | -3.34927 | 787 ft | 162 kts | 60° |
| 2026-04-25 10:59 | 55.96491 | -3.33322 | 1380 ft | 169 kts | 40° |
| 2026-04-25 10:59 | 55.97393 | -3.31960 | 2072 ft | 177 kts | 40° |
| 2026-04-25 10:59 | 55.98370 | -3.30415 | 2623 ft | 194 kts | 40° |
| 2026-04-25 11:00 | 55.99393 | -3.28838 | 3375 ft | 197 kts | 33° |
| 2026-04-25 11:00 | 56.00674 | -3.28023 | 4071 ft | 199 kts | 1° |
| 2026-04-25 11:00 | 56.02068 | -3.28530 | 4351 ft | 217 kts | 330° |
| 2026-04-25 11:00 | 56.03184 | -3.30461 | 4609 ft | 233 kts | 297° |
| 2026-04-25 11:01 | 56.03508 | -3.33316 | 5095 ft | 243 kts | 263° |
| 2026-04-25 11:01 | 56.03050 | -3.36314 | 5681 ft | 258 kts | 253° |
| 2026-04-25 11:01 | 56.02503 | -3.39421 | 6491 ft | 267 kts | 253° |
| 2026-04-25 11:01 | 56.01980 | -3.42613 | 7317 ft | 272 kts | 254° |
| 2026-04-25 11:02 | 56.01467 | -3.45886 | 8140 ft | 273 kts | 255° |
| 2026-04-25 11:02 | 56.00989 | -3.49202 | 8897 ft | 277 kts | 256° |
| 2026-04-25 11:02 | 56.00509 | -3.52588 | 9652 ft | 281 kts | 256° |
| 2026-04-25 11:02 | 56.00025 | -3.56004 | 10483 ft | 284 kts | 256° |
| 2026-04-25 11:03 | 55.99535 | -3.59479 | 11180 ft | 291 kts | 256° |
| 2026-04-25 11:03 | 55.99029 | -3.63026 | 11669 ft | 304 kts | 256° |
| 2026-04-25 11:03 | 55.98488 | -3.66797 | 12184 ft | 316 kts | 256° |
| 2026-04-25 11:03 | 55.97934 | -3.70656 | 12704 ft | 326 kts | 256° |
| 2026-04-25 11:04 | 55.97355 | -3.74651 | 13281 ft | 336 kts | 256° |
| 2026-04-25 11:04 | 55.96768 | -3.78713 | 13864 ft | 344 kts | 255° |
| 2026-04-25 11:04 | 55.96161 | -3.82914 | 14419 ft | 353 kts | 255° |
| 2026-04-25 11:04 | 55.95750 | -3.85762 | 14749 ft | 359 kts | 255° |
| 2026-04-25 11:05 | 55.94908 | -3.91554 | 15624 ft | 364 kts | 255° |
| 2026-04-25 11:05 | 55.94266 | -3.95957 | 16387 ft | 367 kts | 255° |
| 2026-04-25 11:05 | 55.93226 | -4.00068 | 17006 ft | 372 kts | 232° |
| 2026-04-25 11:05 | 55.91295 | -4.03133 | 17751 ft | 373 kts | 213° |
| 2026-04-25 11:06 | 55.89097 | -4.05569 | 18644 ft | 370 kts | 212° |
| 2026-04-25 11:06 | 55.86940 | -4.08085 | 19426 ft | 368 kts | 215° |
| 2026-04-25 11:06 | 55.84890 | -4.10819 | 20177 ft | 367 kts | 219° |
| 2026-04-25 11:06 | 55.82942 | -4.13719 | 20939 ft | 366 kts | 221° |
| 2026-04-25 11:07 | 55.81031 | -4.16706 | 21713 ft | 364 kts | 221° |
| 2026-04-25 11:07 | 55.79123 | -4.19715 | 21996 ft | 364 kts | 221° |
| 2026-04-25 11:07 | 55.77169 | -4.22500 | 22170 ft | 363 kts | 215° |
| 2026-04-25 11:07 | 55.75056 | -4.25020 | 22223 ft | 365 kts | 213° |
| 2026-04-25 11:08 | 55.72962 | -4.27477 | 22236 ft | 365 kts | 213° |
| 2026-04-25 11:08 | 55.70858 | -4.29994 | 22229 ft | 364 kts | 214° |
| 2026-04-25 11:08 | 55.68760 | -4.32557 | 22238 ft | 364 kts | 214° |
| 2026-04-25 11:08 | 55.66675 | -4.35130 | 22231 ft | 363 kts | 214° |
| 2026-04-25 11:09 | 55.64629 | -4.37663 | 22214 ft | 363 kts | 214° |
| 2026-04-25 11:09 | 55.62546 | -4.40240 | 22220 ft | 363 kts | 214° |
| 2026-04-25 11:09 | 55.60491 | -4.42776 | 22220 ft | 363 kts | 214° |
| 2026-04-25 11:09 | 55.58394 | -4.45361 | 22218 ft | 363 kts | 214° |
| 2026-04-25 11:10 | 55.56332 | -4.47896 | 22217 ft | 364 kts | 214° |
| 2026-04-25 11:10 | 55.54955 | -4.49586 | 22220 ft | 364 kts | 214° |
| 2026-04-25 11:10 | 55.52155 | -4.53019 | 22222 ft | 364 kts | 214° |
| 2026-04-25 11:10 | 55.50092 | -4.55544 | 22216 ft | 365 kts | 214° |
| 2026-04-25 11:11 | 55.47989 | -4.58115 | 22216 ft | 365 kts | 214° |
| 2026-04-25 11:11 | 55.45923 | -4.60636 | 22222 ft | 365 kts | 214° |
| 2026-04-25 11:11 | 55.43821 | -4.63200 | 22209 ft | 365 kts | 214° |
| 2026-04-25 11:11 | 55.41725 | -4.65751 | 22209 ft | 365 kts | 214° |
| 2026-04-25 11:12 | 55.39660 | -4.68263 | 22221 ft | 364 kts | 214° |
| 2026-04-25 11:12 | 55.37561 | -4.70812 | 22223 ft | 364 kts | 214° |
| 2026-04-25 11:12 | 55.35473 | -4.73346 | 22198 ft | 364 kts | 214° |
| 2026-04-25 11:12 | 55.33381 | -4.75879 | 22198 ft | 364 kts | 214° |
| 2026-04-25 11:13 | 55.31332 | -4.78390 | 22197 ft | 363 kts | 217° |
| 2026-04-25 11:13 | 55.29404 | -4.81285 | 22214 ft | 363 kts | 221° |
| 2026-04-25 11:13 | 55.27544 | -4.84277 | 22218 ft | 362 kts | 222° |
| 2026-04-25 11:13 | 55.25712 | -4.87260 | 22197 ft | 362 kts | 222° |
| 2026-04-25 11:14 | 55.23832 | -4.90314 | 22197 ft | 362 kts | 222° |
| 2026-04-25 11:14 | 55.21992 | -4.93289 | 22206 ft | 362 kts | 222° |
| 2026-04-25 11:14 | 55.20128 | -4.96290 | 22201 ft | 362 kts | 222° |
| 2026-04-25 11:14 | 55.18261 | -4.99282 | 22204 ft | 362 kts | 221° |
| 2026-04-25 11:15 | 55.16416 | -5.02230 | 22201 ft | 362 kts | 221° |
| 2026-04-25 11:15 | 55.14536 | -5.05229 | 22209 ft | 363 kts | 221° |
| 2026-04-25 11:15 | 55.12697 | -5.08156 | 22202 ft | 363 kts | 221° |
| 2026-04-25 11:15 | 55.10797 | -5.11174 | 22204 ft | 363 kts | 221° |
| 2026-04-25 11:16 | 55.07077 | -5.17073 | 22205 ft | 364 kts | 221° |
| 2026-04-25 11:16 | 55.05192 | -5.20056 | 22207 ft | 364 kts | 221° |
| 2026-04-25 11:16 | 55.03299 | -5.23048 | 22201 ft | 364 kts | 221° |
| 2026-04-25 11:17 | 55.02050 | -5.25020 | 22205 ft | 364 kts | 221° |
| 2026-04-25 11:17 | 55.00073 | -5.28136 | 22211 ft | 364 kts | 221° |
| 2026-04-25 11:18 | 54.98172 | -5.31130 | 22205 ft | 364 kts | 221° |
| 2026-04-25 11:18 | 54.96314 | -5.34053 | 22209 ft | 364 kts | 221° |
| 2026-04-25 11:18 | 54.94436 | -5.37003 | 22207 ft | 364 kts | 221° |
| 2026-04-25 11:18 | 54.92553 | -5.39957 | 22207 ft | 364 kts | 221° |
| 2026-04-25 11:19 | 54.90666 | -5.42914 | 22208 ft | 363 kts | 221° |
| 2026-04-25 11:19 | 54.88800 | -5.45834 | 22214 ft | 363 kts | 221° |
| 2026-04-25 11:19 | 54.86917 | -5.48777 | 22209 ft | 363 kts | 221° |
| 2026-04-25 11:19 | 54.85045 | -5.51701 | 22211 ft | 362 kts | 221° |
| 2026-04-25 11:20 | 54.83186 | -5.54598 | 22213 ft | 362 kts | 221° |
| 2026-04-25 11:20 | 54.81296 | -5.57552 | 22217 ft | 362 kts | 223° |
| 2026-04-25 11:20 | 54.79658 | -5.60841 | 22212 ft | 363 kts | 234° |
| 2026-04-25 11:20 | 54.78371 | -5.64629 | 22209 ft | 364 kts | 245° |
| 2026-04-25 11:21 | 54.77476 | -5.68592 | 22219 ft | 364 kts | 249° |
| 2026-04-25 11:21 | 54.76627 | -5.72736 | 22216 ft | 364 kts | 250° |
| 2026-04-25 11:21 | 54.75800 | -5.76840 | 22222 ft | 365 kts | 250° |
| 2026-04-25 11:21 | 54.74946 | -5.81045 | 22218 ft | 365 kts | 249° |
| 2026-04-25 11:22 | 54.74093 | -5.85194 | 22217 ft | 366 kts | 249° |
| 2026-04-25 11:22 | 54.73520 | -5.87950 | 22220 ft | 366 kts | 249° |
| 2026-04-25 11:22 | 54.72665 | -5.92036 | 22211 ft | 366 kts | 249° |
| 2026-04-25 11:22 | 54.71495 | -5.97595 | 22206 ft | 366 kts | 249° |
| 2026-04-25 11:23 | 54.70902 | -6.00403 | 22211 ft | 365 kts | 248° |
| 2026-04-25 11:23 | 54.70045 | -6.04453 | 22211 ft | 365 kts | 248° |
| 2026-04-25 11:23 | 54.69185 | -6.08509 | 22208 ft | 365 kts | 248° |
| 2026-04-25 11:23 | 54.68294 | -6.12706 | 22211 ft | 364 kts | 248° |
| 2026-04-25 11:24 | 54.67429 | -6.16772 | 22215 ft | 364 kts | 248° |
| 2026-04-25 11:24 | 54.66550 | -6.20890 | 22219 ft | 364 kts | 248° |
| 2026-04-25 11:24 | 54.65567 | -6.24910 | 22206 ft | 363 kts | 242° |
| 2026-04-25 11:24 | 54.64381 | -6.28752 | 22218 ft | 362 kts | 239° |
| 2026-04-25 11:25 | 54.63140 | -6.32546 | 22218 ft | 362 kts | 239° |
| 2026-04-25 11:25 | 54.61885 | -6.36330 | 22213 ft | 362 kts | 239° |
| 2026-04-25 11:25 | 54.60649 | -6.40065 | 22212 ft | 362 kts | 239° |
| 2026-04-25 11:25 | 54.59404 | -6.43851 | 22210 ft | 362 kts | 239° |
| 2026-04-25 11:26 | 54.58147 | -6.47691 | 22208 ft | 362 kts | 239° |
| 2026-04-25 11:26 | 54.56923 | -6.51445 | 22212 ft | 361 kts | 239° |
| 2026-04-25 11:26 | 54.55691 | -6.55230 | 22210 ft | 361 kts | 239° |
| 2026-04-25 11:26 | 54.54471 | -6.58977 | 22206 ft | 361 kts | 239° |
| 2026-04-25 11:27 | 54.53225 | -6.62801 | 22202 ft | 361 kts | 239° |
| 2026-04-25 11:27 | 54.52002 | -6.66547 | 22200 ft | 362 kts | 239° |
| 2026-04-25 11:27 | 54.50769 | -6.70322 | 22191 ft | 362 kts | 239° |
| 2026-04-25 11:27 | 54.49951 | -6.72825 | 22199 ft | 362 kts | 239° |
| 2026-04-25 11:28 | 54.48291 | -6.77892 | 22189 ft | 362 kts | 239° |
| 2026-04-25 11:28 | 54.47056 | -6.81653 | 22201 ft | 361 kts | 239° |
| 2026-04-25 11:28 | 54.45838 | -6.85361 | 22195 ft | 361 kts | 239° |
| 2026-04-25 11:28 | 54.44598 | -6.89127 | 22187 ft | 361 kts | 239° |
| 2026-04-25 11:29 | 54.43361 | -6.92877 | 22186 ft | 360 kts | 239° |
| 2026-04-25 11:29 | 54.42124 | -6.96625 | 22197 ft | 360 kts | 239° |
| 2026-04-25 11:29 | 54.40885 | -7.00369 | 22191 ft | 360 kts | 239° |
| 2026-04-25 11:29 | 54.39660 | -7.04067 | 22186 ft | 359 kts | 239° |
| 2026-04-25 11:30 | 54.38393 | -7.07888 | 22184 ft | 359 kts | 239° |
| 2026-04-25 11:30 | 54.37172 | -7.11562 | 22186 ft | 358 kts | 239° |
| 2026-04-25 11:30 | 54.35939 | -7.15267 | 22183 ft | 358 kts | 239° |
| 2026-04-25 11:30 | 54.34702 | -7.18980 | 22179 ft | 357 kts | 239° |
| 2026-04-25 11:31 | 54.33464 | -7.22692 | 22183 ft | 357 kts | 239° |
| 2026-04-25 11:31 | 54.32231 | -7.26385 | 22190 ft | 357 kts | 239° |
| 2026-04-25 11:31 | 54.31028 | -7.29979 | 22181 ft | 356 kts | 238° |
| 2026-04-25 11:31 | 54.29791 | -7.33668 | 22172 ft | 350 kts | 238° |
| 2026-04-25 11:32 | 54.28499 | -7.37166 | 22171 ft | 342 kts | 230° |
| 2026-04-25 11:32 | 54.26894 | -7.40148 | 22179 ft | 338 kts | 221° |
| 2026-04-25 11:32 | 54.25050 | -7.42543 | 22183 ft | 335 kts | 212° |
| 2026-04-25 11:32 | 54.23047 | -7.44737 | 21985 ft | 338 kts | 211° |
| 2026-04-25 11:33 | 54.21090 | -7.46831 | 21769 ft | 333 kts | 211° |
| 2026-04-25 11:33 | 54.19120 | -7.48939 | 21431 ft | 332 kts | 211° |
| 2026-04-25 11:33 | 54.17173 | -7.51033 | 21094 ft | 330 kts | 211° |
| 2026-04-25 11:33 | 54.15228 | -7.53133 | 20740 ft | 328 kts | 211° |
| 2026-04-25 11:34 | 54.13302 | -7.55221 | 20390 ft | 326 kts | 211° |
| 2026-04-25 11:34 | 54.11397 | -7.57286 | 20057 ft | 324 kts | 211° |
| 2026-04-25 11:34 | 54.09496 | -7.59349 | 19709 ft | 322 kts | 211° |
| 2026-04-25 11:34 | 54.07610 | -7.61393 | 19387 ft | 321 kts | 211° |
| 2026-04-25 11:35 | 54.05737 | -7.63424 | 19037 ft | 319 kts | 211° |
| 2026-04-25 11:35 | 54.03892 | -7.65420 | 18709 ft | 318 kts | 210° |
| 2026-04-25 11:35 | 54.01994 | -7.67468 | 18347 ft | 317 kts | 210° |
| 2026-04-25 11:35 | 54.00148 | -7.69548 | 17951 ft | 318 kts | 218° |
| 2026-04-25 11:36 | 53.98705 | -7.72396 | 17576 ft | 321 kts | 238° |
| 2026-04-25 11:36 | 53.97786 | -7.75869 | 17224 ft | 321 kts | 245° |
| 2026-04-25 11:36 | 53.96984 | -7.79420 | 16850 ft | 321 kts | 246° |
| 2026-04-25 11:36 | 53.96205 | -7.82960 | 16495 ft | 320 kts | 246° |
| 2026-04-25 11:37 | 53.95433 | -7.86443 | 16157 ft | 318 kts | 246° |
| 2026-04-25 11:37 | 53.94665 | -7.89861 | 15836 ft | 316 kts | 245° |
| 2026-04-25 11:37 | 53.93858 | -7.93411 | 15496 ft | 314 kts | 245° |
| 2026-04-25 11:37 | 53.93067 | -7.96867 | 15166 ft | 312 kts | 245° |
| 2026-04-25 11:38 | 53.92280 | -8.00287 | 14836 ft | 311 kts | 245° |
| 2026-04-25 11:38 | 53.91492 | -8.03700 | 14512 ft | 310 kts | 245° |
| 2026-04-25 11:38 | 53.90706 | -8.07100 | 14183 ft | 308 kts | 245° |
| 2026-04-25 11:38 | 53.89930 | -8.10446 | 13838 ft | 307 kts | 244° |
| 2026-04-25 11:39 | 53.89147 | -8.13814 | 13483 ft | 306 kts | 245° |
| 2026-04-25 11:39 | 53.88364 | -8.17187 | 13048 ft | 306 kts | 245° |
| 2026-04-25 11:39 | 53.87756 | -8.20682 | 12533 ft | 313 kts | 254° |
| 2026-04-25 11:39 | 53.87337 | -8.24327 | 12145 ft | 314 kts | 256° |
| 2026-04-25 11:40 | 53.86968 | -8.27953 | 11802 ft | 312 kts | 257° |
| 2026-04-25 11:40 | 53.86600 | -8.31549 | 11464 ft | 310 kts | 256° |
| 2026-04-25 11:40 | 53.86218 | -8.35168 | 11139 ft | 308 kts | 256° |
| 2026-04-25 11:40 | 53.85831 | -8.38724 | 10800 ft | 303 kts | 256° |
| 2026-04-25 11:41 | 53.85451 | -8.42148 | 10489 ft | 298 kts | 256° |
| 2026-04-25 11:41 | 53.85058 | -8.45625 | 10207 ft | 296 kts | 256° |
| 2026-04-25 11:41 | 53.84678 | -8.48961 | 10083 ft | 287 kts | 255° |
| 2026-04-25 11:41 | 53.84301 | -8.52261 | 9844 ft | 284 kts | 255° |
| 2026-04-25 11:42 | 53.83922 | -8.55547 | 9539 ft | 282 kts | 255° |
| 2026-04-25 11:42 | 53.83548 | -8.58773 | 9247 ft | 280 kts | 255° |
| 2026-04-25 11:42 | 53.83171 | -8.62023 | 8958 ft | 278 kts | 255° |
| 2026-04-25 11:42 | 53.82797 | -8.65237 | 8664 ft | 277 kts | 255° |
| 2026-04-25 11:43 | 53.82426 | -8.68427 | 8383 ft | 275 kts | 255° |
| 2026-04-25 11:43 | 53.82055 | -8.71603 | 8109 ft | 273 kts | 255° |
| 2026-04-25 11:43 | 53.81688 | -8.74730 | 7816 ft | 272 kts | 255° |
| 2026-04-25 11:43 | 53.81319 | -8.77874 | 7544 ft | 271 kts | 255° |
| 2026-04-25 11:44 | 53.80950 | -8.81002 | 7257 ft | 268 kts | 255° |
| 2026-04-25 11:44 | 53.80594 | -8.84024 | 6902 ft | 264 kts | 255° |
| 2026-04-25 11:44 | 53.80229 | -8.87104 | 6418 ft | 264 kts | 255° |
| 2026-04-25 11:44 | 53.79871 | -8.90115 | 6075 ft | 259 kts | 255° |
| 2026-04-25 11:45 | 53.79524 | -8.93052 | 5781 ft | 251 kts | 255° |
| 2026-04-25 11:45 | 53.79180 | -8.95948 | 5540 ft | 249 kts | 255° |
| 2026-04-25 11:45 | 53.78839 | -8.98792 | 5342 ft | 245 kts | 255° |
| 2026-04-25 11:45 | 53.78507 | -9.01570 | 5233 ft | 239 kts | 255° |
| 2026-04-25 11:46 | 53.78182 | -9.04304 | 5112 ft | 233 kts | 257° |
| 2026-04-25 11:46 | 53.78287 | -9.07013 | 4984 ft | 233 kts | 290° |
| 2026-04-25 11:46 | 53.79233 | -9.09165 | 4833 ft | 233 kts | 323° |
| 2026-04-25 11:46 | 53.80682 | -9.10268 | 4730 ft | 228 kts | 345° |
| 2026-04-25 11:47 | 53.82236 | -9.10833 | 4377 ft | 230 kts | 349° |
| 2026-04-25 11:47 | 53.83794 | -9.11331 | 4094 ft | 225 kts | 349° |
| 2026-04-25 11:47 | 53.85312 | -9.11721 | 3835 ft | 219 kts | 2° |
| 2026-04-25 11:47 | 53.86681 | -9.10876 | 3606 ft | 206 kts | 47° |
| 2026-04-25 11:48 | 53.87409 | -9.08923 | 3504 ft | 192 kts | 66° |
| 2026-04-25 11:48 | 53.87960 | -9.06836 | 3362 ft | 194 kts | 75° |
| 2026-04-25 11:48 | 53.88323 | -9.04648 | 3111 ft | 193 kts | 79° |
| 2026-04-25 11:48 | 53.88615 | -9.02424 | 2850 ft | 191 kts | 82° |
| 2026-04-25 11:49 | 53.88873 | -9.00279 | 2599 ft | 184 kts | 81° |
| 2026-04-25 11:49 | 53.89117 | -8.98196 | 2377 ft | 173 kts | 82° |
| 2026-04-25 11:49 | 53.89343 | -8.96264 | 2140 ft | 163 kts | 83° |
| 2026-04-25 11:49 | 53.89554 | -8.94454 | 1946 ft | 150 kts | 83° |
| 2026-04-25 11:50 | 53.89756 | -8.92730 | 1759 ft | 150 kts | 84° |
| 2026-04-25 11:50 | 53.89957 | -8.91008 | 1575 ft | 148 kts | 83° |
| 2026-04-25 11:50 | 53.90155 | -8.89332 | 1404 ft | 144 kts | 83° |
| 2026-04-25 11:50 | 53.90351 | -8.87661 | 1183 ft | 144 kts | 84° |
| 2026-04-25 11:51 | 53.90539 | -8.86025 | 1009 ft | 139 kts | 83° |
| 2026-04-25 11:51 | 53.90722 | -8.84413 | 831 ft | 139 kts | 82° |
| 2026-04-25 11:51 | 53.90913 | -8.82830 | 656 ft | 131 kts | 78° |
| 2026-04-25 11:51 | 53.91066 | -8.81540 | 645 ft | 85 kts | 78° |
| 2026-04-25 11:52 | 53.91139 | -8.80919 | 648 ft | 24 kts | 79° |
| 2026-04-25 11:52 | 53.91206 | -8.80875 | 649 ft | 12 kts | 345° |
| 2026-04-25 11:52 | 53.91286 | -8.80908 | 648 ft | 12 kts | 347° |
| 2026-04-25 11:52 | 53.91363 | -8.80935 | 651 ft | 7 kts | 349° |
| 2026-04-25 11:53 | 53.91402 | -8.80963 | 648 ft | 5 kts | 293° |
| 2026-04-25 11:53 | 53.91399 | -8.80994 | 648 ft | 2 kts | 271° |
| 2026-04-25 11:53 | 53.91403 | -8.81019 | 651 ft | 2 kts | 277° |
| 2026-04-25 11:53 | 53.91403 | -8.81023 | 648 ft | 0 kts | 264° |